To NAV CANADA Home Page Login to a new session Search on AWWS site Feedback and Comments Disclaimer Vers la page française équivalente Tips FAQ What's new on the site To the Forecasts and Observations / NOTAM section To "File a Flight Plan" website Publications and other links Update of the User's profile FIC Telephone Numbers My Weather Data Folder Route Weather Data Regional Weather Data Local Weather Data To the Forecasts and Observations / NOTAM section
Request Generated 04/24/2014 at 01:32:10 UTC . Weather information available at that time is displayed.

METAR/TAF

LLOYDMINSTER/AB    (show WxCam)

METAR CYLL 240100Z 12020G26KT 4SM -RA BR BKN010 OVC019 04/03 A2948
RMK SC6SC2 SLP005=
METAR CYLL 240000Z 12015G22KT 4SM -RA BR BKN011 OVC020 04/03 A2948
RMK SC5SC3 /R20/ SLP004=
SPECI CYLL 232344Z 11017KT 4SM -RA BR BKN011 OVC020 04/03 A2948 RMK
SC6SC2 SLP004=
METAR CYLL 232300Z 11013G21KT 3SM -RA BR BKN009 OVC017 04/03 A2948
RMK SC6SC2 SLP004=

TAF CYLL 232338Z 2400/2412 11012G22KT 3SM RA BR SCT004 OVC008 TEMPO
2400/2406 6SM -RA SCT008 OVC012
FM240600 11015G25KT 11/2SM -RASN BR OVC004 TEMPO 2406/2410 6SM
-RA OVC009
FM241000 10012KT 3/4SM -SN BR OVC003 TEMPO 2410/2412 4SM -RASN BR
OVC006
RMK NXT FCST BY 240600Z=
Your time UTC time
Weather data provided by Environment Canada and NAV CANADA